sensor_id;sensor_type;location;lat;lon;timestamp;P1;durP1;ratioP1;P2;durP2;ratioP2
23539;SDS011;11947;50.810;4.394;2023-06-14T00:02:12;11.48;;;7.95;;
23539;SDS011;11947;50.810;4.394;2023-06-14T00:04:38;13.00;;;8.10;;
23539;SDS011;11947;50.810;4.394;2023-06-14T00:07:06;11.20;;;7.68;;
23539;SDS011;11947;50.810;4.394;2023-06-14T00:09:34;12.10;;;7.63;;
23539;SDS011;11947;50.810;4.394;2023-06-14T00:12:00;15.55;;;8.25;;
23539;SDS011;11947;50.810;4.394;2023-06-14T00:14:26;13.23;;;8.40;;
23539;SDS011;11947;50.810;4.394;2023-06-14T00:16:52;13.13;;;8.50;;
23539;SDS011;11947;50.810;4.394;2023-06-14T00:19:18;13.68;;;7.70;;
23539;SDS011;11947;50.810;4.394;2023-06-14T00:21:44;12.95;;;7.88;;
23539;SDS011;11947;50.810;4.394;2023-06-14T00:24:10;13.32;;;8.30;;
23539;SDS011;11947;50.810;4.394;2023-06-14T00:26:36;14.18;;;8.32;;
23539;SDS011;11947;50.810;4.394;2023-06-14T00:29:02;13.80;;;8.02;;
23539;SDS011;11947;50.810;4.394;2023-06-14T00:31:27;11.68;;;7.57;;
23539;SDS011;11947;50.810;4.394;2023-06-14T00:33:53;12.07;;;7.63;;
23539;SDS011;11947;50.810;4.394;2023-06-14T00:36:19;12.05;;;8.10;;
23539;SDS011;11947;50.810;4.394;2023-06-14T00:38:44;14.25;;;7.60;;
23539;SDS011;11947;50.810;4.394;2023-06-14T00:41:10;11.77;;;8.10;;
23539;SDS011;11947;50.810;4.394;2023-06-14T00:43:36;10.82;;;7.55;;
23539;SDS011;11947;50.810;4.394;2023-06-14T00:46:01;14.20;;;8.27;;
23539;SDS011;11947;50.810;4.394;2023-06-14T00:48:27;15.45;;;8.50;;
23539;SDS011;11947;50.810;4.394;2023-06-14T00:50:53;13.63;;;8.25;;
23539;SDS011;11947;50.810;4.394;2023-06-14T00:53:20;16.63;;;8.43;;
23539;SDS011;11947;50.810;4.394;2023-06-14T00:55:47;10.73;;;7.95;;
23539;SDS011;11947;50.810;4.394;2023-06-14T00:58:14;13.55;;;7.43;;
23539;SDS011;11947;50.810;4.394;2023-06-14T01:00:40;12.30;;;8.40;;
23539;SDS011;11947;50.810;4.394;2023-06-14T01:03:05;13.43;;;7.93;;
23539;SDS011;11947;50.810;4.394;2023-06-14T01:05:31;13.27;;;8.50;;
23539;SDS011;11947;50.810;4.394;2023-06-14T01:13:23;13.23;;;8.60;;
23539;SDS011;11947;50.810;4.394;2023-06-14T01:15:57;13.05;;;8.75;;
23539;SDS011;11947;50.810;4.394;2023-06-14T01:18:24;12.10;;;8.23;;
23539;SDS011;11947;50.810;4.394;2023-06-14T01:20:52;13.43;;;8.30;;
23539;SDS011;11947;50.810;4.394;2023-06-14T01:23:20;16.13;;;8.32;;
23539;SDS011;11947;50.810;4.394;2023-06-14T01:25:48;13.48;;;8.38;;
23539;SDS011;11947;50.810;4.394;2023-06-14T01:28:17;11.63;;;8.38;;
23539;SDS011;11947;50.810;4.394;2023-06-14T01:30:46;17.42;;;8.20;;
23539;SDS011;11947;50.810;4.394;2023-06-14T01:35:46;12.95;;;7.90;;
23539;SDS011;11947;50.810;4.394;2023-06-14T01:38:13;15.80;;;9.15;;
23539;SDS011;11947;50.810;4.394;2023-06-14T01:40:40;16.17;;;9.10;;
23539;SDS011;11947;50.810;4.394;2023-06-14T01:43:09;13.18;;;8.85;;
23539;SDS011;11947;50.810;4.394;2023-06-14T01:45:37;16.42;;;8.50;;
23539;SDS011;11947;50.810;4.394;2023-06-14T01:48:05;15.63;;;9.27;;
23539;SDS011;11947;50.810;4.394;2023-06-14T01:50:31;16.50;;;8.65;;
23539;SDS011;11947;50.810;4.394;2023-06-14T01:52:57;15.85;;;9.07;;
23539;SDS011;11947;50.810;4.394;2023-06-14T01:55:23;15.30;;;8.98;;
23539;SDS011;11947;50.810;4.394;2023-06-14T01:57:50;13.65;;;8.68;;
23539;SDS011;11947;50.810;4.394;2023-06-14T02:00:16;17.10;;;8.75;;
23539;SDS011;11947;50.810;4.394;2023-06-14T02:02:43;11.77;;;8.98;;
23539;SDS011;11947;50.810;4.394;2023-06-14T02:05:10;12.90;;;8.88;;
23539;SDS011;11947;50.810;4.394;2023-06-14T02:07:36;20.30;;;9.50;;
23539;SDS011;11947;50.810;4.394;2023-06-14T02:10:02;15.40;;;8.98;;
23539;SDS011;11947;50.810;4.394;2023-06-14T02:12:29;13.35;;;8.57;;
23539;SDS011;11947;50.810;4.394;2023-06-14T02:14:56;14.98;;;8.75;;
23539;SDS011;11947;50.810;4.394;2023-06-14T02:17:23;15.73;;;9.50;;
23539;SDS011;11947;50.810;4.394;2023-06-14T02:19:48;16.63;;;9.13;;
23539;SDS011;11947;50.810;4.394;2023-06-14T02:22:15;15.60;;;9.30;;
23539;SDS011;11947;50.810;4.394;2023-06-14T02:24:41;11.60;;;7.85;;
23539;SDS011;11947;50.810;4.394;2023-06-14T02:27:07;18.73;;;9.48;;
23539;SDS011;11947;50.810;4.394;2023-06-14T02:29:36;16.15;;;8.80;;
23539;SDS011;11947;50.810;4.394;2023-06-14T02:32:02;13.15;;;8.95;;
23539;SDS011;11947;50.810;4.394;2023-06-14T02:34:29;17.85;;;9.35;;
23539;SDS011;11947;50.810;4.394;2023-06-14T02:36:54;12.90;;;8.95;;
23539;SDS011;11947;50.810;4.394;2023-06-14T02:39:20;14.45;;;9.50;;
23539;SDS011;11947;50.810;4.394;2023-06-14T02:41:48;19.20;;;9.68;;
23539;SDS011;11947;50.810;4.394;2023-06-14T02:44:14;17.40;;;9.50;;
23539;SDS011;11947;50.810;4.394;2023-06-14T02:46:42;14.63;;;9.15;;
23539;SDS011;11947;50.810;4.394;2023-06-14T02:49:08;12.32;;;9.23;;
23539;SDS011;11947;50.810;4.394;2023-06-14T02:51:35;17.70;;;9.63;;
23539;SDS011;11947;50.810;4.394;2023-06-14T02:54:00;14.18;;;9.00;;
23539;SDS011;11947;50.810;4.394;2023-06-14T02:56:26;17.35;;;9.55;;
23539;SDS011;11947;50.810;4.394;2023-06-14T02:58:52;14.43;;;9.90;;
23539;SDS011;11947;50.810;4.394;2023-06-14T03:01:18;16.77;;;9.90;;
23539;SDS011;11947;50.810;4.394;2023-06-14T03:03:46;13.85;;;9.13;;
23539;SDS011;11947;50.810;4.394;2023-06-14T03:06:12;18.40;;;9.77;;
23539;SDS011;11947;50.810;4.394;2023-06-14T03:08:39;16.42;;;10.18;;
23539;SDS011;11947;50.810;4.394;2023-06-14T03:11:06;15.80;;;10.27;;
23539;SDS011;11947;50.810;4.394;2023-06-14T03:13:32;16.42;;;9.57;;
23539;SDS011;11947;50.810;4.394;2023-06-14T03:16:01;18.98;;;9.80;;
23539;SDS011;11947;50.810;4.394;2023-06-14T03:18:29;19.88;;;9.82;;
23539;SDS011;11947;50.810;4.394;2023-06-14T03:20:56;17.23;;;9.82;;
23539;SDS011;11947;50.810;4.394;2023-06-14T03:23:23;17.60;;;10.90;;
23539;SDS011;11947;50.810;4.394;2023-06-14T03:25:50;19.02;;;9.73;;
23539;SDS011;11947;50.810;4.394;2023-06-14T03:28:16;18.73;;;10.20;;
23539;SDS011;11947;50.810;4.394;2023-06-14T03:30:42;19.10;;;10.10;;
23539;SDS011;11947;50.810;4.394;2023-06-14T03:33:08;17.20;;;9.93;;
23539;SDS011;11947;50.810;4.394;2023-06-14T03:35:34;18.55;;;10.60;;
23539;SDS011;11947;50.810;4.394;2023-06-14T03:38:00;13.77;;;10.10;;
23539;SDS011;11947;50.810;4.394;2023-06-14T03:40:27;16.38;;;9.70;;
23539;SDS011;11947;50.810;4.394;2023-06-14T03:42:53;18.90;;;9.93;;
23539;SDS011;11947;50.810;4.394;2023-06-14T03:45:19;14.07;;;10.10;;
23539;SDS011;11947;50.810;4.394;2023-06-14T03:47:45;16.02;;;10.20;;
23539;SDS011;11947;50.810;4.394;2023-06-14T03:50:11;15.32;;;10.45;;
23539;SDS011;11947;50.810;4.394;2023-06-14T03:52:37;21.58;;;9.98;;
23539;SDS011;11947;50.810;4.394;2023-06-14T03:55:03;13.38;;;9.80;;
23539;SDS011;11947;50.810;4.394;2023-06-14T03:57:29;16.13;;;10.10;;
23539;SDS011;11947;50.810;4.394;2023-06-14T03:59:55;19.08;;;10.43;;
23539;SDS011;11947;50.810;4.394;2023-06-14T04:02:21;19.00;;;10.68;;
23539;SDS011;11947;50.810;4.394;2023-06-14T04:04:47;15.48;;;10.85;;
23539;SDS011;11947;50.810;4.394;2023-06-14T04:07:13;16.98;;;9.88;;
23539;SDS011;11947;50.810;4.394;2023-06-14T04:09:40;15.23;;;9.85;;
23539;SDS011;11947;50.810;4.394;2023-06-14T04:12:06;19.17;;;10.13;;
23539;SDS011;11947;50.810;4.394;2023-06-14T04:14:33;16.75;;;10.13;;
23539;SDS011;11947;50.810;4.394;2023-06-14T04:16:59;21.35;;;10.40;;
23539;SDS011;11947;50.810;4.394;2023-06-14T04:19:25;15.90;;;10.57;;
23539;SDS011;11947;50.810;4.394;2023-06-14T04:21:51;16.48;;;10.10;;
23539;SDS011;11947;50.810;4.394;2023-06-14T04:24:17;20.45;;;10.45;;
23539;SDS011;11947;50.810;4.394;2023-06-14T04:26:43;17.80;;;9.77;;
23539;SDS011;11947;50.810;4.394;2023-06-14T04:29:13;15.27;;;9.75;;
23539;SDS011;11947;50.810;4.394;2023-06-14T04:31:41;18.15;;;10.93;;
23539;SDS011;11947;50.810;4.394;2023-06-14T04:34:07;16.50;;;10.00;;
23539;SDS011;11947;50.810;4.394;2023-06-14T04:36:33;16.13;;;10.35;;
23539;SDS011;11947;50.810;4.394;2023-06-14T04:39:00;17.80;;;10.75;;
23539;SDS011;11947;50.810;4.394;2023-06-14T04:41:28;16.77;;;10.75;;
23539;SDS011;11947;50.810;4.394;2023-06-14T04:43:56;17.13;;;10.05;;
23539;SDS011;11947;50.810;4.394;2023-06-14T04:46:23;17.48;;;10.07;;
23539;SDS011;11947;50.810;4.394;2023-06-14T04:48:49;21.15;;;11.27;;
23539;SDS011;11947;50.810;4.394;2023-06-14T04:51:15;18.90;;;9.70;;
23539;SDS011;11947;50.810;4.394;2023-06-14T04:53:41;13.05;;;9.73;;
23539;SDS011;11947;50.810;4.394;2023-06-14T04:56:07;21.83;;;10.10;;
23539;SDS011;11947;50.810;4.394;2023-06-14T04:58:33;20.33;;;10.10;;
23539;SDS011;11947;50.810;4.394;2023-06-14T05:00:59;17.88;;;10.13;;
23539;SDS011;11947;50.810;4.394;2023-06-14T05:03:27;17.85;;;10.55;;
23539;SDS011;11947;50.810;4.394;2023-06-14T05:05:53;15.98;;;10.65;;
23539;SDS011;11947;50.810;4.394;2023-06-14T05:08:20;17.20;;;10.27;;
23539;SDS011;11947;50.810;4.394;2023-06-14T05:10:48;16.00;;;10.60;;
23539;SDS011;11947;50.810;4.394;2023-06-14T05:13:14;16.20;;;10.02;;
23539;SDS011;11947;50.810;4.394;2023-06-14T05:15:40;17.40;;;10.10;;
23539;SDS011;11947;50.810;4.394;2023-06-14T05:18:06;16.98;;;10.40;;
23539;SDS011;11947;50.810;4.394;2023-06-14T05:20:34;16.90;;;10.68;;
23539;SDS011;11947;50.810;4.394;2023-06-14T05:23:02;17.80;;;10.30;;
23539;SDS011;11947;50.810;4.394;2023-06-14T05:25:28;19.48;;;10.82;;
23539;SDS011;11947;50.810;4.394;2023-06-14T05:27:53;19.63;;;10.73;;
23539;SDS011;11947;50.810;4.394;2023-06-14T05:30:19;17.98;;;10.75;;
23539;SDS011;11947;50.810;4.394;2023-06-14T05:32:45;18.95;;;10.50;;
23539;SDS011;11947;50.810;4.394;2023-06-14T05:35:10;21.73;;;10.68;;
23539;SDS011;11947;50.810;4.394;2023-06-14T05:37:36;20.73;;;11.02;;
23539;SDS011;11947;50.810;4.394;2023-06-14T05:40:02;18.08;;;11.23;;
23539;SDS011;11947;50.810;4.394;2023-06-14T05:42:32;18.02;;;11.02;;
23539;SDS011;11947;50.810;4.394;2023-06-14T05:44:58;22.13;;;10.55;;
23539;SDS011;11947;50.810;4.394;2023-06-14T05:47:24;18.02;;;10.80;;
23539;SDS011;11947;50.810;4.394;2023-06-14T05:49:50;23.85;;;11.43;;
23539;SDS011;11947;50.810;4.394;2023-06-14T05:52:16;22.42;;;11.48;;
23539;SDS011;11947;50.810;4.394;2023-06-14T05:54:41;19.67;;;11.13;;
23539;SDS011;11947;50.810;4.394;2023-06-14T05:57:07;18.52;;;10.88;;
23539;SDS011;11947;50.810;4.394;2023-06-14T05:59:33;15.15;;;9.88;;
23539;SDS011;11947;50.810;4.394;2023-06-14T06:01:59;17.00;;;11.00;;
23539;SDS011;11947;50.810;4.394;2023-06-14T06:04:24;17.60;;;10.15;;
23539;SDS011;11947;50.810;4.394;2023-06-14T06:06:50;15.93;;;10.40;;
23539;SDS011;11947;50.810;4.394;2023-06-14T06:09:16;18.55;;;10.13;;
23539;SDS011;11947;50.810;4.394;2023-06-14T06:11:41;21.20;;;10.60;;
23539;SDS011;11947;50.810;4.394;2023-06-14T06:14:07;18.10;;;10.73;;
23539;SDS011;11947;50.810;4.394;2023-06-14T06:16:33;17.77;;;10.40;;
23539;SDS011;11947;50.810;4.394;2023-06-14T06:19:01;15.40;;;10.07;;
23539;SDS011;11947;50.810;4.394;2023-06-14T06:21:27;18.17;;;9.93;;
23539;SDS011;11947;50.810;4.394;2023-06-14T06:23:53;15.25;;;10.02;;
23539;SDS011;11947;50.810;4.394;2023-06-14T06:26:19;21.55;;;10.20;;
23539;SDS011;11947;50.810;4.394;2023-06-14T06:28:46;18.50;;;10.52;;
23539;SDS011;11947;50.810;4.394;2023-06-14T06:31:12;16.77;;;9.90;;
23539;SDS011;11947;50.810;4.394;2023-06-14T06:33:38;17.25;;;9.98;;
23539;SDS011;11947;50.810;4.394;2023-06-14T06:36:04;16.75;;;9.50;;
23539;SDS011;11947;50.810;4.394;2023-06-14T06:38:30;17.50;;;9.40;;
23539;SDS011;11947;50.810;4.394;2023-06-14T06:40:56;15.07;;;9.85;;
23539;SDS011;11947;50.810;4.394;2023-06-14T06:43:21;15.50;;;9.48;;
23539;SDS011;11947;50.810;4.394;2023-06-14T06:45:47;14.77;;;9.32;;
23539;SDS011;11947;50.810;4.394;2023-06-14T06:48:13;12.90;;;9.13;;
23539;SDS011;11947;50.810;4.394;2023-06-14T06:50:38;17.75;;;10.23;;
23539;SDS011;11947;50.810;4.394;2023-06-14T06:53:04;14.40;;;9.18;;
23539;SDS011;11947;50.810;4.394;2023-06-14T06:55:31;16.10;;;9.20;;
23539;SDS011;11947;50.810;4.394;2023-06-14T06:57:57;18.25;;;9.73;;
23539;SDS011;11947;50.810;4.394;2023-06-14T07:00:23;15.90;;;10.10;;
23539;SDS011;11947;50.810;4.394;2023-06-14T07:02:48;17.92;;;9.70;;
23539;SDS011;11947;50.810;4.394;2023-06-14T07:05:14;15.13;;;8.80;;
23539;SDS011;11947;50.810;4.394;2023-06-14T07:07:40;14.93;;;9.10;;
23539;SDS011;11947;50.810;4.394;2023-06-14T07:10:05;14.75;;;9.20;;
23539;SDS011;11947;50.810;4.394;2023-06-14T07:12:32;13.23;;;8.93;;
23539;SDS011;11947;50.810;4.394;2023-06-14T07:15:00;15.93;;;9.52;;
23539;SDS011;11947;50.810;4.394;2023-06-14T07:17:26;14.73;;;8.52;;
23539;SDS011;11947;50.810;4.394;2023-06-14T07:19:52;12.77;;;9.05;;
23539;SDS011;11947;50.810;4.394;2023-06-14T07:22:18;12.27;;;8.25;;
23539;SDS011;11947;50.810;4.394;2023-06-14T07:24:44;15.93;;;8.38;;
23539;SDS011;11947;50.810;4.394;2023-06-14T07:27:09;14.60;;;8.07;;
23539;SDS011;11947;50.810;4.394;2023-06-14T07:29:36;10.70;;;8.07;;
23539;SDS011;11947;50.810;4.394;2023-06-14T07:32:02;16.40;;;7.85;;
23539;SDS011;11947;50.810;4.394;2023-06-14T07:34:28;10.48;;;8.23;;
23539;SDS011;11947;50.810;4.394;2023-06-14T07:36:53;13.15;;;8.40;;
23539;SDS011;11947;50.810;4.394;2023-06-14T07:39:19;13.52;;;8.50;;
23539;SDS011;11947;50.810;4.394;2023-06-14T07:41:45;12.05;;;8.45;;
23539;SDS011;11947;50.810;4.394;2023-06-14T07:44:10;11.30;;;8.00;;
23539;SDS011;11947;50.810;4.394;2023-06-14T07:46:37;16.00;;;8.23;;
23539;SDS011;11947;50.810;4.394;2023-06-14T07:49:03;11.48;;;7.40;;
23539;SDS011;11947;50.810;4.394;2023-06-14T07:51:30;17.60;;;8.05;;
23539;SDS011;11947;50.810;4.394;2023-06-14T07:53:55;14.60;;;7.70;;
23539;SDS011;11947;50.810;4.394;2023-06-14T07:56:21;11.48;;;8.07;;
23539;SDS011;11947;50.810;4.394;2023-06-14T07:58:48;11.48;;;7.82;;
23539;SDS011;11947;50.810;4.394;2023-06-14T08:01:13;12.63;;;8.05;;
23539;SDS011;11947;50.810;4.394;2023-06-14T08:03:40;11.65;;;7.88;;
23539;SDS011;11947;50.810;4.394;2023-06-14T08:06:06;10.43;;;7.25;;
23539;SDS011;11947;50.810;4.394;2023-06-14T08:08:32;10.43;;;7.35;;
23539;SDS011;11947;50.810;4.394;2023-06-14T08:10:57;13.50;;;7.85;;
23539;SDS011;11947;50.810;4.394;2023-06-14T08:13:23;9.90;;;8.10;;
23539;SDS011;11947;50.810;4.394;2023-06-14T08:15:49;12.38;;;7.88;;
23539;SDS011;11947;50.810;4.394;2023-06-14T08:18:15;16.73;;;8.02;;
23539;SDS011;11947;50.810;4.394;2023-06-14T08:20:41;10.38;;;7.38;;
23539;SDS011;11947;50.810;4.394;2023-06-14T08:23:06;16.83;;;7.07;;
23539;SDS011;11947;50.810;4.394;2023-06-14T08:25:33;11.77;;;6.93;;
23539;SDS011;11947;50.810;4.394;2023-06-14T08:27:58;14.57;;;7.25;;
23539;SDS011;11947;50.810;4.394;2023-06-14T08:30:25;10.63;;;7.20;;
23539;SDS011;11947;50.810;4.394;2023-06-14T08:32:50;15.75;;;8.07;;
23539;SDS011;11947;50.810;4.394;2023-06-14T08:35:16;9.15;;;7.20;;
23539;SDS011;11947;50.810;4.394;2023-06-14T08:37:43;16.00;;;8.25;;
23539;SDS011;11947;50.810;4.394;2023-06-14T08:40:13;13.30;;;8.50;;
23539;SDS011;11947;50.810;4.394;2023-06-14T08:42:46;10.57;;;7.70;;
23539;SDS011;11947;50.810;4.394;2023-06-14T08:45:15;12.00;;;7.78;;
23539;SDS011;11947;50.810;4.394;2023-06-14T08:47:40;10.13;;;7.80;;
23539;SDS011;11947;50.810;4.394;2023-06-14T08:50:06;10.95;;;7.93;;
23539;SDS011;11947;50.810;4.394;2023-06-14T08:52:33;15.82;;;7.85;;
23539;SDS011;11947;50.810;4.394;2023-06-14T08:55:08;14.32;;;8.40;;
23539;SDS011;11947;50.810;4.394;2023-06-14T08:57:35;13.93;;;8.23;;
23539;SDS011;11947;50.810;4.394;2023-06-14T09:00:02;13.65;;;8.77;;
23539;SDS011;11947;50.810;4.394;2023-06-14T09:02:38;11.45;;;7.85;;
23539;SDS011;11947;50.810;4.394;2023-06-14T09:05:11;10.15;;;8.02;;
23539;SDS011;11947;50.810;4.394;2023-06-14T09:07:39;14.23;;;7.57;;
23539;SDS011;11947;50.810;4.394;2023-06-14T09:10:09;12.30;;;8.02;;
23539;SDS011;11947;50.810;4.394;2023-06-14T09:12:36;12.27;;;7.95;;
23539;SDS011;11947;50.810;4.394;2023-06-14T09:15:03;10.50;;;8.38;;
23539;SDS011;11947;50.810;4.394;2023-06-14T09:17:37;14.43;;;7.65;;
23539;SDS011;11947;50.810;4.394;2023-06-14T09:20:06;14.25;;;8.10;;
23539;SDS011;11947;50.810;4.394;2023-06-14T09:22:35;12.97;;;7.37;;
23539;SDS011;11947;50.810;4.394;2023-06-14T09:25:04;16.45;;;7.95;;
23539;SDS011;11947;50.810;4.394;2023-06-14T09:27:31;10.73;;;7.72;;
23539;SDS011;11947;50.810;4.394;2023-06-14T09:29:57;13.90;;;7.97;;
23539;SDS011;11947;50.810;4.394;2023-06-14T09:32:23;8.70;;;7.38;;
23539;SDS011;11947;50.810;4.394;2023-06-14T09:34:49;10.68;;;7.63;;
23539;SDS011;11947;50.810;4.394;2023-06-14T09:37:31;14.63;;;7.82;;
23539;SDS011;11947;50.810;4.394;2023-06-14T09:39:58;14.00;;;7.32;;
23539;SDS011;11947;50.810;4.394;2023-06-14T09:42:24;13.60;;;7.72;;
23539;SDS011;11947;50.810;4.394;2023-06-14T09:44:50;12.35;;;7.78;;
23539;SDS011;11947;50.810;4.394;2023-06-14T09:47:18;7.80;;;7.00;;
23539;SDS011;11947;50.810;4.394;2023-06-14T09:49:44;13.00;;;7.95;;
23539;SDS011;11947;50.810;4.394;2023-06-14T09:52:10;9.77;;;7.45;;
23539;SDS011;11947;50.810;4.394;2023-06-14T09:54:42;11.90;;;7.68;;
23539;SDS011;11947;50.810;4.394;2023-06-14T09:57:11;11.75;;;8.45;;
23539;SDS011;11947;50.810;4.394;2023-06-14T09:59:37;10.18;;;7.70;;
23539;SDS011;11947;50.810;4.394;2023-06-14T10:02:11;8.38;;;7.47;;
23539;SDS011;11947;50.810;4.394;2023-06-14T10:04:46;12.90;;;7.70;;
23539;SDS011;11947;50.810;4.394;2023-06-14T10:07:22;16.70;;;7.90;;
23539;SDS011;11947;50.810;4.394;2023-06-14T10:09:52;14.05;;;8.00;;
23539;SDS011;11947;50.810;4.394;2023-06-14T10:12:18;13.55;;;8.30;;
23539;SDS011;11947;50.810;4.394;2023-06-14T10:14:47;13.30;;;8.50;;
23539;SDS011;11947;50.810;4.394;2023-06-14T10:17:17;11.95;;;7.78;;
23539;SDS011;11947;50.810;4.394;2023-06-14T10:19:50;12.95;;;8.25;;
23539;SDS011;11947;50.810;4.394;2023-06-14T10:22:26;11.23;;;7.50;;
23539;SDS011;11947;50.810;4.394;2023-06-14T10:24:57;11.30;;;7.45;;
23539;SDS011;11947;50.810;4.394;2023-06-14T10:27:23;12.27;;;7.80;;
23539;SDS011;11947;50.810;4.394;2023-06-14T10:32:18;9.95;;;7.18;;
23539;SDS011;11947;50.810;4.394;2023-06-14T10:34:45;9.65;;;7.03;;
23539;SDS011;11947;50.810;4.394;2023-06-14T10:37:18;9.65;;;6.70;;
23539;SDS011;11947;50.810;4.394;2023-06-14T10:39:44;8.98;;;7.38;;
23539;SDS011;11947;50.810;4.394;2023-06-14T10:42:14;10.32;;;6.63;;
23539;SDS011;11947;50.810;4.394;2023-06-14T10:44:58;7.53;;;6.38;;
23539;SDS011;11947;50.810;4.394;2023-06-14T10:50:05;10.27;;;6.72;;
23539;SDS011;11947;50.810;4.394;2023-06-14T10:52:39;6.75;;;6.05;;
23539;SDS011;11947;50.810;4.394;2023-06-14T11:00:13;7.15;;;6.25;;
23539;SDS011;11947;50.810;4.394;2023-06-14T11:05:48;11.82;;;6.22;;
23539;SDS011;11947;50.810;4.394;2023-06-14T11:08:25;9.82;;;6.82;;
23539;SDS011;11947;50.810;4.394;2023-06-14T11:11:05;11.00;;;6.50;;
23539;SDS011;11947;50.810;4.394;2023-06-14T11:13:32;13.05;;;6.25;;
23539;SDS011;11947;50.810;4.394;2023-06-14T11:15:59;14.63;;;6.78;;
23539;SDS011;11947;50.810;4.394;2023-06-14T11:18:25;10.77;;;6.80;;
23539;SDS011;11947;50.810;4.394;2023-06-14T11:20:52;8.27;;;6.68;;
23539;SDS011;11947;50.810;4.394;2023-06-14T11:23:18;12.05;;;6.60;;
23539;SDS011;11947;50.810;4.394;2023-06-14T11:25:49;10.65;;;6.57;;
23539;SDS011;11947;50.810;4.394;2023-06-14T11:28:16;7.53;;;6.72;;
23539;SDS011;11947;50.810;4.394;2023-06-14T11:30:41;9.27;;;6.55;;
23539;SDS011;11947;50.810;4.394;2023-06-14T11:33:09;7.80;;;7.00;;
23539;SDS011;11947;50.810;4.394;2023-06-14T11:35:36;8.93;;;7.15;;
23539;SDS011;11947;50.810;4.394;2023-06-14T11:38:01;7.70;;;6.45;;
23539;SDS011;11947;50.810;4.394;2023-06-14T11:40:27;9.40;;;6.97;;
23539;SDS011;11947;50.810;4.394;2023-06-14T11:43:00;8.07;;;7.28;;
23539;SDS011;11947;50.810;4.394;2023-06-14T11:45:26;11.27;;;7.15;;
23539;SDS011;11947;50.810;4.394;2023-06-14T11:47:54;8.52;;;6.93;;
23539;SDS011;11947;50.810;4.394;2023-06-14T11:50:23;7.72;;;7.03;;
23539;SDS011;11947;50.810;4.394;2023-06-14T11:52:56;12.25;;;6.85;;
23539;SDS011;11947;50.810;4.394;2023-06-14T11:55:25;9.07;;;7.07;;
23539;SDS011;11947;50.810;4.394;2023-06-14T11:57:53;15.45;;;6.72;;
23539;SDS011;11947;50.810;4.394;2023-06-14T12:00:22;14.18;;;6.90;;
23539;SDS011;11947;50.810;4.394;2023-06-14T12:02:53;7.13;;;6.50;;
23539;SDS011;11947;50.810;4.394;2023-06-14T12:05:21;10.13;;;6.90;;
23539;SDS011;11947;50.810;4.394;2023-06-14T12:07:47;11.25;;;6.63;;
23539;SDS011;11947;50.810;4.394;2023-06-14T12:10:13;10.02;;;6.43;;
23539;SDS011;11947;50.810;4.394;2023-06-14T12:12:40;10.55;;;6.72;;
23539;SDS011;11947;50.810;4.394;2023-06-14T12:15:07;9.75;;;7.10;;
23539;SDS011;11947;50.810;4.394;2023-06-14T12:17:34;8.50;;;7.05;;
23539;SDS011;11947;50.810;4.394;2023-06-14T12:20:13;8.48;;;7.05;;
23539;SDS011;11947;50.810;4.394;2023-06-14T12:22:53;7.20;;;6.50;;
23539;SDS011;11947;50.810;4.394;2023-06-14T12:25:24;9.27;;;6.80;;
23539;SDS011;11947;50.810;4.394;2023-06-14T12:27:59;10.88;;;6.80;;
23539;SDS011;11947;50.810;4.394;2023-06-14T12:30:29;9.27;;;6.30;;
23539;SDS011;11947;50.810;4.394;2023-06-14T12:32:55;7.20;;;6.40;;
23539;SDS011;11947;50.810;4.394;2023-06-14T12:35:21;7.00;;;6.30;;
23539;SDS011;11947;50.810;4.394;2023-06-14T12:37:46;7.97;;;6.30;;
23539;SDS011;11947;50.810;4.394;2023-06-14T12:40:12;7.95;;;6.13;;
23539;SDS011;11947;50.810;4.394;2023-06-14T12:42:38;7.47;;;6.50;;
23539;SDS011;11947;50.810;4.394;2023-06-14T12:45:05;11.98;;;6.55;;
23539;SDS011;11947;50.810;4.394;2023-06-14T12:47:30;11.43;;;6.53;;
23539;SDS011;11947;50.810;4.394;2023-06-14T12:49:56;7.22;;;6.18;;
23539;SDS011;11947;50.810;4.394;2023-06-14T12:52:22;9.45;;;6.70;;
23539;SDS011;11947;50.810;4.394;2023-06-14T12:54:47;8.45;;;6.13;;
23539;SDS011;11947;50.810;4.394;2023-06-14T12:57:13;8.65;;;6.60;;
23539;SDS011;11947;50.810;4.394;2023-06-14T12:59:38;7.90;;;5.85;;
23539;SDS011;11947;50.810;4.394;2023-06-14T13:02:11;7.05;;;6.40;;
23539;SDS011;11947;50.810;4.394;2023-06-14T13:04:38;7.07;;;6.03;;
23539;SDS011;11947;50.810;4.394;2023-06-14T13:07:04;7.47;;;6.32;;
23539;SDS011;11947;50.810;4.394;2023-06-14T13:09:30;7.50;;;6.50;;
23539;SDS011;11947;50.810;4.394;2023-06-14T13:11:56;11.20;;;6.50;;
23539;SDS011;11947;50.810;4.394;2023-06-14T13:14:21;7.00;;;6.22;;
23539;SDS011;11947;50.810;4.394;2023-06-14T13:16:47;6.70;;;5.70;;
23539;SDS011;11947;50.810;4.394;2023-06-14T13:19:13;10.02;;;6.45;;
23539;SDS011;11947;50.810;4.394;2023-06-14T13:21:39;6.40;;;5.45;;
23539;SDS011;11947;50.810;4.394;2023-06-14T13:24:04;6.07;;;5.35;;
23539;SDS011;11947;50.810;4.394;2023-06-14T13:26:30;7.95;;;6.45;;
23539;SDS011;11947;50.810;4.394;2023-06-14T13:28:56;6.93;;;5.43;;
23539;SDS011;11947;50.810;4.394;2023-06-14T13:31:22;9.27;;;5.70;;
23539;SDS011;11947;50.810;4.394;2023-06-14T13:33:47;10.30;;;5.65;;
23539;SDS011;11947;50.810;4.394;2023-06-14T13:36:13;10.40;;;5.80;;
23539;SDS011;11947;50.810;4.394;2023-06-14T13:38:38;6.47;;;5.88;;
23539;SDS011;11947;50.810;4.394;2023-06-14T13:41:04;7.65;;;5.32;;
23539;SDS011;11947;50.810;4.394;2023-06-14T13:43:30;7.35;;;4.80;;
23539;SDS011;11947;50.810;4.394;2023-06-14T13:45:55;6.32;;;4.43;;
23539;SDS011;11947;50.810;4.394;2023-06-14T13:48:21;7.78;;;4.47;;
23539;SDS011;11947;50.810;4.394;2023-06-14T13:50:47;7.68;;;4.72;;
23539;SDS011;11947;50.810;4.394;2023-06-14T13:53:12;6.03;;;4.95;;
23539;SDS011;11947;50.810;4.394;2023-06-14T13:55:39;7.28;;;4.65;;
23539;SDS011;11947;50.810;4.394;2023-06-14T13:58:04;6.80;;;4.50;;
23539;SDS011;11947;50.810;4.394;2023-06-14T14:00:30;6.45;;;4.93;;
23539;SDS011;11947;50.810;4.394;2023-06-14T14:02:55;7.30;;;4.47;;
23539;SDS011;11947;50.810;4.394;2023-06-14T14:05:22;5.63;;;4.40;;
23539;SDS011;11947;50.810;4.394;2023-06-14T14:07:53;10.93;;;4.40;;
23539;SDS011;11947;50.810;4.394;2023-06-14T14:10:19;6.85;;;4.70;;
23539;SDS011;11947;50.810;4.394;2023-06-14T14:12:45;7.53;;;4.07;;
23539;SDS011;11947;50.810;4.394;2023-06-14T14:15:11;7.63;;;4.57;;
23539;SDS011;11947;50.810;4.394;2023-06-14T14:17:39;6.88;;;3.78;;
23539;SDS011;11947;50.810;4.394;2023-06-14T14:20:05;7.25;;;3.90;;
23539;SDS011;11947;50.810;4.394;2023-06-14T14:22:32;8.07;;;4.03;;
23539;SDS011;11947;50.810;4.394;2023-06-14T14:24:57;3.80;;;3.33;;
23539;SDS011;11947;50.810;4.394;2023-06-14T14:27:23;5.20;;;3.33;;
23539;SDS011;11947;50.810;4.394;2023-06-14T14:29:49;5.03;;;3.50;;
23539;SDS011;11947;50.810;4.394;2023-06-14T14:32:14;6.22;;;3.47;;
23539;SDS011;11947;50.810;4.394;2023-06-14T14:34:40;6.72;;;3.15;;
23539;SDS011;11947;50.810;4.394;2023-06-14T14:37:06;6.95;;;3.08;;
23539;SDS011;11947;50.810;4.394;2023-06-14T14:39:31;5.53;;;3.30;;
23539;SDS011;11947;50.810;4.394;2023-06-14T14:41:57;5.60;;;3.28;;
23539;SDS011;11947;50.810;4.394;2023-06-14T14:44:23;10.10;;;3.22;;
23539;SDS011;11947;50.810;4.394;2023-06-14T14:46:49;7.20;;;2.53;;
23539;SDS011;11947;50.810;4.394;2023-06-14T14:49:14;4.13;;;2.70;;
23539;SDS011;11947;50.810;4.394;2023-06-14T14:51:40;7.63;;;2.45;;
23539;SDS011;11947;50.810;4.394;2023-06-14T14:54:06;2.75;;;2.03;;
23539;SDS011;11947;50.810;4.394;2023-06-14T14:56:32;4.82;;;2.58;;